createdAt,value
2023-09-15T00:03:46.203Z,98256.19
2023-09-15T00:08:48.727Z,98259.28
2023-09-15T00:13:52.089Z,98265.13
2023-09-15T00:18:54.235Z,98269.75
2023-09-15T00:23:56.370Z,98265.72
2023-09-15T00:28:58.536Z,98255.00
2023-09-15T00:39:03.086Z,98248.94
2023-09-15T00:44:05.451Z,98252.56
2023-09-15T00:49:07.913Z,98245.44
2023-09-15T00:54:13.310Z,98245.94
2023-09-15T00:59:15.917Z,98234.28
2023-09-15T01:04:19.571Z,98247.31
2023-09-15T01:09:24.026Z,98235.22
2023-09-15T01:14:27.270Z,98240.16
2023-09-15T01:19:44.084Z,98241.88
2023-09-15T01:25:32.200Z,98222.81
2023-09-15T01:30:35.108Z,98222.06
2023-09-15T01:35:37.304Z,98230.63
2023-09-15T01:40:39.547Z,98228.41
2023-09-15T01:45:41.716Z,98224.97
2023-09-15T01:50:44.934Z,98223.09
2023-09-15T01:55:49.894Z,98228.81
2023-09-15T02:00:53.419Z,98228.38
2023-09-15T02:05:57.227Z,98227.59
2023-09-15T02:10:59.558Z,98226.63
2023-09-15T02:16:01.946Z,98226.66
2023-09-15T02:21:05.070Z,98231.59
2023-09-15T02:26:07.551Z,98233.00
2023-09-15T02:31:09.970Z,98227.41
2023-09-15T02:36:12.682Z,98231.41
2023-09-15T02:41:15.542Z,98238.03
2023-09-15T02:46:18.193Z,98241.00
2023-09-15T02:51:20.627Z,98233.59
2023-09-15T02:56:25.290Z,98229.28
2023-09-15T03:01:28.231Z,98236.22
2023-09-15T03:06:30.851Z,98230.34
2023-09-15T03:11:33.199Z,98229.66
2023-09-15T03:16:45.387Z,98225.78
2023-09-15T03:21:48.046Z,98225.13
2023-09-15T03:26:51.152Z,98230.09
2023-09-15T03:31:53.630Z,98231.00
2023-09-15T03:36:55.980Z,98229.63
2023-09-15T03:41:58.260Z,98231.78
2023-09-15T03:47:01.957Z,98218.19
2023-09-15T03:52:04.687Z,98220.97
2023-09-15T03:57:06.829Z,98218.66
2023-09-15T04:02:10.018Z,98215.59
2023-09-15T04:07:13.926Z,98211.72
2023-09-15T04:12:16.128Z,98216.06
2023-09-15T04:17:19.319Z,98212.72
2023-09-15T04:22:22.769Z,98207.94
2023-09-15T04:27:24.920Z,98212.38
2023-09-15T04:32:29.946Z,98207.06
2023-09-15T04:37:32.449Z,98206.88
2023-09-15T04:42:35.161Z,98201.16
2023-09-15T04:47:39.032Z,98199.63
2023-09-15T04:53:08.521Z,98198.91
2023-09-15T04:58:12.901Z,98199.41
2023-09-15T05:03:17.246Z,98201.91
2023-09-15T05:08:19.629Z,98196.88
2023-09-15T05:13:21.930Z,98198.28
2023-09-15T05:18:24.285Z,98211.53
2023-09-15T05:23:26.543Z,98208.41
2023-09-15T05:28:28.726Z,98212.59
2023-09-15T05:33:31.003Z,98215.63
2023-09-15T05:38:33.299Z,98220.09
2023-09-15T05:43:35.617Z,98216.53
2023-09-15T05:48:37.850Z,98212.63
2023-09-15T05:53:40.059Z,98214.22
2023-09-15T05:58:42.871Z,98212.75
2023-09-15T06:03:45.101Z,98224.59
2023-09-15T06:08:47.513Z,98227.03
2023-09-15T06:13:50.085Z,98228.69
2023-09-15T06:18:52.276Z,98229.88
2023-09-15T06:23:54.593Z,98230.91
2023-09-15T06:28:58.189Z,98232.91
2023-09-15T06:34:00.558Z,98225.25
2023-09-15T06:39:03.360Z,98224.44
2023-09-15T06:44:06.019Z,98223.25
2023-09-15T06:49:09.598Z,98223.59
2023-09-15T06:54:13.507Z,98220.22
2023-09-15T06:59:15.748Z,98219.81
2023-09-15T07:04:18.908Z,98208.28
2023-09-15T07:09:21.603Z,98223.09
2023-09-15T07:14:23.756Z,98210.69
2023-09-15T07:19:26.038Z,98210.69
2023-09-15T07:24:28.231Z,98214.72
2023-09-15T07:29:31.143Z,98210.44
2023-09-15T07:34:33.347Z,98209.66
2023-09-15T07:39:35.599Z,98214.06
2023-09-15T07:44:39.117Z,98212.31
2023-09-15T07:49:42.004Z,98202.75
2023-09-15T07:54:44.364Z,98201.25
2023-09-15T07:59:47.307Z,98200.91
2023-09-15T08:04:50.515Z,98201.78
2023-09-15T08:09:53.434Z,98204.72
2023-09-15T08:14:55.614Z,98204.28
2023-09-15T08:19:58.113Z,98195.22
2023-09-15T08:25:02.514Z,98189.97
2023-09-15T08:30:06.826Z,98193.22
2023-09-15T08:35:09.308Z,98195.03
2023-09-15T08:40:13.663Z,98196.56
2023-09-15T08:45:16.562Z,98193.00
2023-09-15T08:50:19.932Z,98185.38
2023-09-15T08:55:22.442Z,98183.94
2023-09-15T09:00:25.334Z,98176.38
2023-09-15T09:05:32.226Z,98178.19
2023-09-15T09:10:34.594Z,98172.06
2023-09-15T09:15:38.653Z,98167.25
2023-09-15T09:20:41.365Z,98155.81
2023-09-15T09:25:44.139Z,98147.47
2023-09-15T09:30:46.723Z,98147.44
2023-09-15T09:35:49.992Z,98147.63
2023-09-15T09:40:53.631Z,98149.03
2023-09-15T09:45:56.507Z,98154.16
2023-09-15T09:50:59.879Z,98141.50
2023-09-15T09:56:04.552Z,98142.16
2023-09-15T10:01:08.013Z,98130.97
2023-09-15T10:06:11.400Z,98126.19
2023-09-15T10:11:14.542Z,98119.38
2023-09-15T10:16:17.985Z,98124.06
2023-09-15T10:21:21.064Z,98119.03
2023-09-15T10:26:24.227Z,98107.66
2023-09-15T10:31:30.195Z,98103.75
2023-09-15T10:41:37.856Z,98093.75
2023-09-15T10:46:41.993Z,98090.75
2023-09-15T10:51:53.654Z,98084.63
2023-09-15T10:56:56.837Z,98088.66
2023-09-15T11:02:00.014Z,98075.09
2023-09-15T11:07:06.313Z,98079.84
2023-09-15T11:12:09.545Z,98055.72
2023-09-15T11:17:12.331Z,98066.53
2023-09-15T11:22:15.069Z,98048.16
2023-09-15T11:27:17.806Z,98044.81
2023-09-15T11:32:21.011Z,98051.25
2023-09-15T11:37:23.616Z,98049.59
2023-09-15T11:42:25.943Z,98039.81
2023-09-15T11:47:32.477Z,98041.50
2023-09-15T11:52:34.993Z,98020.41
2023-09-15T11:57:37.453Z,98009.69
2023-09-15T12:02:39.719Z,97999.34
2023-09-15T12:07:44.755Z,97996.75
2023-09-15T12:12:47.044Z,97990.59
2023-09-15T12:17:49.266Z,97987.66
2023-09-15T12:22:55.049Z,97977.06
2023-09-15T12:27:57.713Z,97974.03
2023-09-15T12:33:00.434Z,97962.16
2023-09-15T12:38:03.444Z,97960.34
2023-09-15T12:43:07.244Z,97958.16
2023-09-15T12:48:10.527Z,97944.44
2023-09-15T12:53:13.208Z,97934.97
2023-09-15T12:58:15.998Z,97935.56
2023-09-15T13:03:22.500Z,97921.91
2023-09-15T13:08:25.581Z,97919.13
2023-09-15T13:13:28.161Z,97909.09
2023-09-15T13:18:30.707Z,97911.66
2023-09-15T13:23:33.320Z,97894.81
2023-09-15T13:28:36.109Z,97898.28
2023-09-15T13:33:38.672Z,97900.34
2023-09-15T13:38:42.385Z,97894.97
2023-09-15T13:43:45.021Z,97903.56
2023-09-15T13:48:47.889Z,97898.50
2023-09-15T13:53:50.943Z,97898.75
2023-09-15T13:58:55.200Z,97895.06
2023-09-15T14:03:58.919Z,97888.41
2023-09-15T14:09:01.497Z,97893.69
2023-09-15T14:14:04.093Z,97891.34
2023-09-15T14:19:06.671Z,97885.44
2023-09-15T14:24:09.313Z,97877.34
2023-09-15T14:29:14.430Z,97875.06
2023-09-15T14:34:17.876Z,97868.31
2023-09-15T14:39:20.520Z,97870.94
2023-09-15T14:44:23.523Z,97869.44
2023-09-15T14:49:27.381Z,97878.31
2023-09-15T14:54:30.118Z,97865.53
2023-09-15T14:59:32.687Z,97871.13
2023-09-15T15:04:35.462Z,97862.75
2023-09-15T15:09:38.592Z,97853.69
2023-09-15T15:14:41.151Z,97848.88
2023-09-15T15:19:46.970Z,97844.06
2023-09-15T15:24:49.815Z,97833.69
2023-09-15T15:29:52.923Z,97831.03
2023-09-15T15:34:55.273Z,97837.66
2023-09-15T15:39:58.388Z,97834.78
2023-09-15T15:45:00.746Z,97838.28
2023-09-15T15:50:02.956Z,97836.50
2023-09-15T15:55:06.064Z,97838.91
2023-09-15T16:00:09.384Z,97841.22
2023-09-15T16:05:13.222Z,97837.63
2023-09-15T16:10:16.173Z,97835.06
2023-09-15T16:15:18.783Z,97841.78
2023-09-15T16:20:22.305Z,97837.72
2023-09-15T16:25:24.816Z,97837.28
2023-09-15T16:30:27.399Z,97843.25
2023-09-15T16:35:30.041Z,97838.72
2023-09-15T16:40:35.354Z,97833.34
2023-09-15T16:45:37.925Z,97835.59
2023-09-15T16:50:40.635Z,97841.63
2023-09-15T16:55:50.777Z,97832.66
2023-09-15T17:00:55.883Z,97833.34
2023-09-15T17:05:58.536Z,97841.06
2023-09-15T17:11:03.306Z,97841.34
2023-09-15T17:16:05.941Z,97837.91
2023-09-15T17:21:08.667Z,97836.50
2023-09-15T17:26:11.806Z,97841.03
2023-09-15T17:31:14.540Z,97841.31
2023-09-15T17:36:17.137Z,97844.75
2023-09-15T17:41:19.431Z,97850.75
2023-09-15T17:46:21.620Z,97860.47
2023-09-15T17:51:26.171Z,97864.44
2023-09-15T17:56:28.365Z,97861.88
2023-09-15T18:01:30.624Z,97854.66
2023-09-15T18:06:32.810Z,97858.03
2023-09-15T18:11:36.022Z,97863.75
2023-09-15T18:16:38.203Z,97877.34
2023-09-15T18:21:40.430Z,97873.03
2023-09-15T18:26:42.735Z,97869.50
2023-09-15T18:31:45.872Z,97861.53
2023-09-15T18:36:48.093Z,97873.59
2023-09-15T18:41:50.460Z,97869.59
2023-09-15T18:46:53.794Z,97875.63
2023-09-15T18:51:56.007Z,97873.38
2023-09-15T18:56:58.371Z,97871.50
2023-09-15T19:02:00.554Z,97864.06
2023-09-15T19:07:02.774Z,97865.28
2023-09-15T19:12:05.581Z,97868.28
2023-09-15T19:17:07.781Z,97866.50
2023-09-15T19:22:09.984Z,97866.78
2023-09-15T19:27:12.169Z,97855.94
2023-09-15T19:32:14.361Z,97856.56
2023-09-15T19:37:16.612Z,97866.31
2023-09-15T19:42:18.872Z,97871.91
2023-09-15T19:47:21.017Z,97868.19
2023-09-15T19:52:26.224Z,97863.88
2023-09-15T19:57:47.990Z,97867.59
2023-09-15T20:02:52.876Z,97861.69
2023-09-15T20:07:56.907Z,97862.09
2023-09-15T20:12:59.088Z,97860.34
2023-09-15T20:18:01.630Z,97862.28
2023-09-15T20:23:04.759Z,97872.94
2023-09-15T20:28:07.043Z,97875.22
2023-09-15T20:33:09.326Z,97870.19
2023-09-15T20:38:11.626Z,97879.25
2023-09-15T20:43:14.425Z,97876.44
2023-09-15T20:48:16.658Z,97875.47
2023-09-15T20:53:18.865Z,97873.91
2023-09-15T20:58:21.086Z,97874.97
2023-09-15T21:03:23.346Z,97867.63
2023-09-15T21:08:25.561Z,97874.59
2023-09-15T21:13:27.739Z,97866.38
2023-09-15T21:18:30.077Z,97879.66
2023-09-15T21:23:32.234Z,97873.50
2023-09-15T21:28:34.514Z,97864.63
2023-09-15T21:33:38.721Z,97861.50
2023-09-15T21:38:41.086Z,97849.94
2023-09-15T21:43:43.426Z,97854.78
2023-09-15T21:48:45.771Z,97855.88
2023-09-15T21:53:48.144Z,97842.28
2023-09-15T21:58:51.004Z,97855.38
2023-09-15T22:03:53.442Z,97853.22
2023-09-15T22:08:55.969Z,97840.94
2023-09-15T22:13:58.240Z,97838.97
2023-09-15T22:19:00.524Z,97835.84
2023-09-15T22:24:02.725Z,97838.22
2023-09-15T22:29:05.206Z,97838.59
2023-09-15T22:34:08.056Z,97838.63
2023-09-15T22:39:10.374Z,97842.41
2023-09-15T22:44:12.502Z,97850.50
2023-09-15T22:49:19.214Z,97843.50
2023-09-15T22:54:21.381Z,97846.22
2023-09-15T22:59:23.604Z,97842.44
2023-09-15T23:04:25.807Z,97832.06
2023-09-15T23:09:28.159Z,97839.25
2023-09-15T23:14:30.334Z,97833.66
2023-09-15T23:19:35.622Z,97844.91
2023-09-15T23:24:40.617Z,97838.81
2023-09-15T23:29:42.870Z,97833.13
2023-09-15T23:34:45.365Z,97830.88
2023-09-15T23:39:47.721Z,97828.63
2023-09-15T23:44:49.856Z,97834.06
2023-09-15T23:49:53.438Z,97835.22
2023-09-15T23:54:55.663Z,97829.81
2023-09-15T23:59:58.234Z,97839.13
